Time;durP1;ratioP1;P1;durP2;ratioP2;P2;SDS_P1;SDS_P2;PMS_P1;PMS_P2;Temp;Humidity;BMP_temperature;BMP_pressure;BME280_temperature;BME280_humidity;BME280_pressure;Samples;Min_cycle;Max_cycle;Signal;HPM_P1;HPM_P2
2021/09/13 00:02:13;;;;;;;11.80;8.93;;;;;;;;;;5012265;28;20476;-43
2021/09/13 00:04:40;;;;;;;11.48;8.85;;;;;;;;;;5011982;28;20046;-46
2021/09/13 00:07:08;;;;;;;9.35;8.27;;;;;;;;;;5012509;28;20048;-43
2021/09/13 00:09:35;;;;;;;10.05;8.30;;;;;;;;;;5012445;28;20060;-47
2021/09/13 00:12:03;;;;;;;9.30;7.55;;;;;;;;;;5012261;28;20042;-44
2021/09/13 00:14:31;;;;;;;10.68;7.15;;;;;;;;;;5031386;28;20034;-45
2021/09/13 00:16:58;;;;;;;9.25;6.72;;;;;;;;;;5031115;28;20522;-46
2021/09/13 00:19:26;;;;;;;9.40;7.22;;;;;;;;;;5032072;28;20510;-44
2021/09/13 00:21:52;;;;;;;8.10;7.30;;;;;;;;;;5026490;28;20058;-44
2021/09/13 00:24:19;;;;;;;8.20;7.40;;;;;;;;;;5011867;28;20046;-44
2021/09/13 00:26:46;;;;;;;8.07;7.10;;;;;;;;;;5012158;28;20073;-44
2021/09/13 00:29:14;;;;;;;11.10;7.72;;;;;;;;;;5012049;28;20057;-44
2021/09/13 00:31:41;;;;;;;8.88;7.15;;;;;;;;;;5012448;28;20569;-44
2021/09/13 00:34:09;;;;;;;7.97;6.78;;;;;;;;;;5011681;28;20109;-44
2021/09/13 00:36:36;;;;;;;8.60;7.50;;;;;;;;;;5012087;28;20152;-45
2021/09/13 00:39:04;;;;;;;7.80;7.00;;;;;;;;;;5012345;28;20069;-45
2021/09/13 00:41:32;;;;;;;8.85;6.95;;;;;;;;;;5012063;28;20581;-42
2021/09/13 00:44:01;;;;;;;8.13;7.15;;;;;;;;;;5013317;28;20041;-42
2021/09/13 00:46:28;;;;;;;9.02;7.45;;;;;;;;;;5031723;28;20037;-41
2021/09/13 00:48:54;;;;;;;8.02;7.22;;;;;;;;;;5030563;28;20042;-44
2021/09/13 00:51:22;;;;;;;9.27;8.07;;;;;;;;;;5009555;28;20066;-43
2021/09/13 00:53:49;;;;;;;8.80;7.82;;;;;;;;;;5027034;28;20053;-41
2021/09/13 00:56:16;;;;;;;10.43;9.00;;;;;;;;;;5026987;28;20100;-48
2021/09/13 00:58:44;;;;;;;11.10;9.38;;;;;;;;;;5010648;28;20125;-45
2021/09/13 01:01:11;;;;;;;9.35;8.45;;;;;;;;;;5011151;28;20045;-41
2021/09/13 01:03:38;;;;;;;9.65;8.23;;;;;;;;;;5027132;28;20562;-44
2021/09/13 01:06:05;;;;;;;10.02;8.93;;;;;;;;;;5011713;28;20046;-41
2021/09/13 01:08:32;;;;;;;11.43;8.13;;;;;;;;;;5011927;28;20135;-42
2021/09/13 01:10:59;;;;;;;9.50;8.48;;;;;;;;;;5011683;28;20116;-42
2021/09/13 01:13:27;;;;;;;10.75;8.32;;;;;;;;;;5026554;28;20042;-45
2021/09/13 01:15:53;;;;;;;10.60;8.68;;;;;;;;;;5022926;28;20140;-45
2021/09/13 01:18:21;;;;;;;11.25;10.07;;;;;;;;;;5030186;28;20129;-45
2021/09/13 01:20:48;;;;;;;11.57;10.38;;;;;;;;;;5041781;28;20133;-43
2021/09/13 01:23:18;;;;;;;10.52;8.50;;;;;;;;;;5013889;28;20042;-45
2021/09/13 01:25:45;;;;;;;11.02;8.80;;;;;;;;;;5011078;28;20053;-42
2021/09/13 01:28:19;;;;;;;13.23;8.50;;;;;;;;;;5030232;28;20128;-42
2021/09/13 01:30:46;;;;;;;9.85;8.77;;;;;;;;;;5013673;28;20465;-47
2021/09/13 01:33:13;;;;;;;9.93;8.43;;;;;;;;;;5013321;28;20076;-47
2021/09/13 01:35:42;;;;;;;12.27;8.40;;;;;;;;;;5013639;28;20487;-44
2021/09/13 01:38:09;;;;;;;10.10;9.07;;;;;;;;;;5030441;28;20046;-44
2021/09/13 01:40:38;;;;;;;10.15;9.05;;;;;;;;;;5029995;28;20042;-46
2021/09/13 01:43:05;;;;;;;9.48;8.18;;;;;;;;;;5029694;28;20113;-44
2021/09/13 01:45:32;;;;;;;10.05;9.05;;;;;;;;;;5028839;28;20129;-48
2021/09/13 01:47:59;;;;;;;14.07;9.23;;;;;;;;;;5033276;28;20064;-46
2021/09/13 01:50:25;;;;;;;9.73;8.48;;;;;;;;;;5033136;28;20046;-44
2021/09/13 01:52:53;;;;;;;11.13;9.13;;;;;;;;;;5027644;28;20124;-45
2021/09/13 01:55:20;;;;;;;11.05;8.73;;;;;;;;;;5013157;28;20108;-45
2021/09/13 01:57:48;;;;;;;10.07;8.32;;;;;;;;;;5013124;28;20068;-46
2021/09/13 02:00:17;;;;;;;13.25;9.82;;;;;;;;;;5013253;28;20387;-44
2021/09/13 02:02:47;;;;;;;11.60;10.00;;;;;;;;;;5018832;28;20042;-44
2021/09/13 02:05:22;;;;;;;11.70;10.05;;;;;;;;;;5029260;28;20068;-47
2021/09/13 02:07:53;;;;;;;12.75;10.20;;;;;;;;;;5013185;28;20046;-45
2021/09/13 02:10:20;;;;;;;14.73;10.95;;;;;;;;;;5012680;28;20503;-45
2021/09/13 02:12:47;;;;;;;14.27;10.27;;;;;;;;;;5029507;28;20045;-45
2021/09/13 02:15:13;;;;;;;11.45;9.35;;;;;;;;;;5035970;28;20095;-47
2021/09/13 02:17:40;;;;;;;11.77;10.10;;;;;;;;;;5032722;28;20407;-49
2021/09/13 02:20:11;;;;;;;11.90;9.63;;;;;;;;;;5032562;28;20045;-46
2021/09/13 02:22:38;;;;;;;11.02;8.80;;;;;;;;;;5025564;28;20048;-44
2021/09/13 02:25:06;;;;;;;10.98;9.38;;;;;;;;;;5028976;28;20492;-47
2021/09/13 02:27:33;;;;;;;12.10;9.35;;;;;;;;;;5029064;28;20053;-46
2021/09/13 02:30:00;;;;;;;11.15;9.88;;;;;;;;;;5012584;28;20066;-45
2021/09/13 02:32:28;;;;;;;13.23;10.25;;;;;;;;;;5012430;28;20046;-46
2021/09/13 02:34:55;;;;;;;10.43;9.32;;;;;;;;;;4996715;28;20573;-47
2021/09/13 02:37:22;;;;;;;10.15;9.07;;;;;;;;;;5012490;28;20053;-47
2021/09/13 02:39:49;;;;;;;10.90;8.98;;;;;;;;;;5012456;28;20045;-44
2021/09/13 02:42:16;;;;;;;11.18;9.55;;;;;;;;;;5016913;28;20053;-44
2021/09/13 02:44:43;;;;;;;11.38;10.13;;;;;;;;;;5032045;28;20425;-46
2021/09/13 02:47:10;;;;;;;14.27;9.63;;;;;;;;;;5033361;28;20099;-45
2021/09/13 02:49:36;;;;;;;10.90;9.40;;;;;;;;;;5033169;28;20049;-46
2021/09/13 02:52:03;;;;;;;11.32;9.98;;;;;;;;;;5027652;28;20096;-44
2021/09/13 02:54:30;;;;;;;12.38;10.50;;;;;;;;;;5012991;28;20133;-46
2021/09/13 02:56:57;;;;;;;12.50;10.65;;;;;;;;;;4995642;28;20050;-45
2021/09/13 02:59:24;;;;;;;12.15;9.68;;;;;;;;;;4996024;28;20041;-44
2021/09/13 03:01:52;;;;;;;13.55;9.80;;;;;;;;;;5028515;28;20514;-45
2021/09/13 03:04:19;;;;;;;13.48;10.20;;;;;;;;;;4995259;28;20059;-45
2021/09/13 03:06:47;;;;;;;10.48;9.38;;;;;;;;;;5011904;28;20068;-46
2021/09/13 03:09:14;;;;;;;11.18;10.00;;;;;;;;;;5012056;28;20042;-44
2021/09/13 03:11:40;;;;;;;12.93;10.43;;;;;;;;;;5012936;28;20041;-46
2021/09/13 03:14:07;;;;;;;12.68;10.27;;;;;;;;;;5011611;28;20042;-48
2021/09/13 03:16:34;;;;;;;15.65;11.07;;;;;;;;;;5046361;28;20065;-44
2021/09/13 03:19:01;;;;;;;16.60;10.77;;;;;;;;;;5047707;28;20040;-45
2021/09/13 03:21:28;;;;;;;14.40;11.18;;;;;;;;;;5031316;28;20072;-45
2021/09/13 03:23:55;;;;;;;13.85;11.60;;;;;;;;;;5012096;28;20069;-45
2021/09/13 03:26:23;;;;;;;13.45;11.27;;;;;;;;;;5011807;28;20049;-45
2021/09/13 03:28:51;;;;;;;13.18;10.82;;;;;;;;;;5011866;28;20108;-49
2021/09/13 03:31:18;;;;;;;14.05;10.98;;;;;;;;;;5011374;28;20466;-46
2021/09/13 03:33:45;;;;;;;12.43;11.13;;;;;;;;;;5011253;28;20042;-47
2021/09/13 03:36:12;;;;;;;13.68;10.30;;;;;;;;;;5011251;28;20376;-47
2021/09/13 03:38:39;;;;;;;16.42;10.90;;;;;;;;;;5011290;28;20042;-46
2021/09/13 03:41:12;;;;;;;;;;;;;;;;;;5011826;28;20045;-46
2021/09/13 03:43:39;;;;;;;16.33;11.10;;;;;;;;;;5027544;28;19921;-47
2021/09/13 03:46:10;;;;;;;14.48;11.15;;;;;;;;;;5028131;28;20500;-50
2021/09/13 03:49:09;;;;;;;14.03;10.93;;;;;;;;;;5011068;28;20050;-46
2021/09/13 03:51:36;;;;;;;13.57;10.95;;;;;;;;;;5011156;28;20518;-46
2021/09/13 03:54:03;;;;;;;12.95;10.57;;;;;;;;;;5011123;28;20403;-48
2021/09/13 03:56:31;;;;;;;14.15;10.13;;;;;;;;;;4995230;28;20038;-46
2021/09/13 03:58:58;;;;;;;11.40;9.02;;;;;;;;;;5011197;28;20064;-47
2021/09/13 04:01:26;;;;;;;12.40;10.55;;;;;;;;;;5010930;28;20395;-47
2021/09/13 04:03:57;;;;;;;12.20;10.68;;;;;;;;;;5010791;28;20112;-44
2021/09/13 04:06:27;;;;;;;13.02;10.63;;;;;;;;;;5011464;28;20088;-47
2021/09/13 04:09:55;;;;;;;13.20;11.18;;;;;;;;;;5004889;28;20141;-49
2021/09/13 04:12:33;;;;;;;12.98;10.15;;;;;;;;;;5011037;28;20068;-45
2021/09/13 04:15:21;;;;;;;13.82;11.05;;;;;;;;;;5035016;28;20061;-42
2021/09/13 04:18:13;;;;;;;11.53;9.83;;;;;;;;;;5030847;28;20049;-42
2021/09/13 04:20:43;;;;;;;14.98;10.48;;;;;;;;;;5032082;28;20415;-42
2021/09/13 04:23:28;;;;;;;12.23;10.63;;;;;;;;;;5030922;28;20037;-45
2021/09/13 04:26:15;;;;;;;14.27;10.45;;;;;;;;;;5000864;28;20053;-45
2021/09/13 04:29:09;;;;;;;11.80;10.30;;;;;;;;;;5024632;28;20041;-43
2021/09/13 04:32:11;;;;;;;14.48;11.20;;;;;;;;;;5049087;28;20040;-46
2021/09/13 04:34:52;;;;;;;13.40;11.45;;;;;;;;;;5030639;28;20462;-44
2021/09/13 04:37:37;;;;;;;15.27;12.45;;;;;;;;;;5011897;28;20050;-44
2021/09/13 04:40:22;;;;;;;15.27;11.63;;;;;;;;;;5011841;28;20487;-42
2021/09/13 04:43:21;;;;;;;17.15;13.02;;;;;;;;;;5006571;28;20046;-45
2021/09/13 04:46:06;;;;;;;13.68;10.60;;;;;;;;;;5011830;28;20034;-48
2021/09/13 04:48:57;;;;;;;16.70;11.23;;;;;;;;;;5027561;28;20427;-47
2021/09/13 04:51:42;;;;;;;14.27;11.52;;;;;;;;;;5024794;28;20411;-48
2021/09/13 04:54:14;;;;;;;13.07;11.55;;;;;;;;;;5010301;28;20033;-49
2021/09/13 04:56:42;;;;;;;15.98;12.80;;;;;;;;;;5010530;28;20038;-45
2021/09/13 04:59:10;;;;;;;13.90;11.63;;;;;;;;;;5027028;28;20482;-47
2021/09/13 05:01:37;;;;;;;19.92;12.07;;;;;;;;;;5029064;28;20480;-48
2021/09/13 05:04:07;;;;;;;14.95;11.45;;;;;;;;;;5030087;28;20446;-48
2021/09/13 05:06:35;;;;;;;12.93;11.00;;;;;;;;;;5014047;28;20037;-46
2021/09/13 05:09:02;;;;;;;12.27;10.30;;;;;;;;;;5014220;28;20050;-47
2021/09/13 05:11:32;;;;;;;12.85;11.50;;;;;;;;;;5027292;23;20088;-42
2021/09/13 05:13:58;;;;;;;15.05;11.80;;;;;;;;;;5008586;28;20057;-39
2021/09/13 05:16:25;;;;;;;15.43;12.88;;;;;;;;;;5011477;28;20037;-39
2021/09/13 05:18:52;;;;;;;13.95;12.35;;;;;;;;;;5029442;28;20403;-42
2021/09/13 05:21:19;;;;;;;17.38;13.07;;;;;;;;;;5014237;28;20077;-39
2021/09/13 05:23:52;;;;;;;15.63;13.57;;;;;;;;;;5009161;28;20415;-43
2021/09/13 05:26:19;;;;;;;16.45;13.85;;;;;;;;;;4994302;28;20463;-39
2021/09/13 05:28:47;;;;;;;13.93;11.68;;;;;;;;;;5010344;28;20050;-40
2021/09/13 05:31:14;;;;;;;14.60;11.35;;;;;;;;;;4995215;28;20077;-40
2021/09/13 05:33:41;;;;;;;19.98;13.20;;;;;;;;;;4988873;28;20073;-42
2021/09/13 05:36:08;;;;;;;14.30;12.80;;;;;;;;;;4972136;28;20127;-43
2021/09/13 05:38:36;;;;;;;16.20;12.32;;;;;;;;;;4975679;28;20042;-42
2021/09/13 05:41:22;;;;;;;16.25;12.57;;;;;;;;;;4975706;28;20051;-44
2021/09/13 05:43:49;;;;;;;15.52;12.88;;;;;;;;;;4989662;28;20464;-45
2021/09/13 05:46:16;;;;;;;14.23;12.15;;;;;;;;;;4993827;28;20145;-45
2021/09/13 05:48:43;;;;;;;13.25;11.82;;;;;;;;;;4993148;28;20046;-43
2021/09/13 05:51:10;;;;;;;13.45;11.90;;;;;;;;;;4976199;28;20050;-45
2021/09/13 05:53:37;;;;;;;26.60;12.15;;;;;;;;;;4993792;28;20492;-47
2021/09/13 05:56:04;;;;;;;16.20;13.13;;;;;;;;;;5009524;28;20042;-44
2021/09/13 05:58:34;;;;;;;15.00;12.10;;;;;;;;;;5009349;28;20046;-45
2021/09/13 06:01:02;;;;;;;14.52;12.38;;;;;;;;;;4993870;28;20077;-43
2021/09/13 06:03:32;;;;;;;14.70;12.00;;;;;;;;;;4976471;28;20078;-43
2021/09/13 06:06:07;;;;;;;15.48;12.77;;;;;;;;;;4975857;28;20111;-44
2021/09/13 06:08:35;;;;;;;16.52;12.85;;;;;;;;;;4978419;28;20077;-44
2021/09/13 06:11:04;;;;;;;15.40;13.40;;;;;;;;;;5009961;28;20073;-44
2021/09/13 06:13:31;;;;;;;15.02;13.45;;;;;;;;;;4991475;28;20121;-44
2021/09/13 06:15:58;;;;;;;15.52;12.60;;;;;;;;;;4993990;28;20043;-44
2021/09/13 06:18:41;;;;;;;16.92;12.77;;;;;;;;;;4992697;28;20034;-45
2021/09/13 06:21:08;;;;;;;17.08;13.00;;;;;;;;;;4992651;28;20117;-46
2021/09/13 06:23:35;;;;;;;14.30;12.88;;;;;;;;;;4992800;28;20046;-40
2021/09/13 06:26:03;;;;;;;14.88;13.10;;;;;;;;;;4994850;28;20054;-42
2021/09/13 06:28:30;;;;;;;14.85;13.00;;;;;;;;;;4992769;28;20038;-46
2021/09/13 06:30:57;;;;;;;13.30;11.90;;;;;;;;;;4992696;28;20448;-40
2021/09/13 06:33:24;;;;;;;15.73;13.65;;;;;;;;;;4989131;28;20065;-46
2021/09/13 06:35:51;;;;;;;16.75;11.90;;;;;;;;;;4992303;28;20062;-45
2021/09/13 06:38:25;;;;;;;14.40;12.27;;;;;;;;;;4976015;28;20415;-41
2021/09/13 06:40:53;;;;;;;13.85;11.68;;;;;;;;;;4990471;28;20046;-43
2021/09/13 06:43:20;;;;;;;16.30;11.77;;;;;;;;;;4989477;28;20124;-43
2021/09/13 06:45:57;;;;;;;12.95;10.48;;;;;;;;;;4975315;28;20508;-43
2021/09/13 06:48:24;;;;;;;13.55;10.43;;;;;;;;;;4992292;28;20038;-46
2021/09/13 06:50:51;;;;;;;11.98;10.73;;;;;;;;;;4975174;28;20590;-45
2021/09/13 06:53:18;;;;;;;13.93;11.00;;;;;;;;;;4992575;28;20050;-50
2021/09/13 06:55:45;;;;;;;16.08;11.50;;;;;;;;;;4992092;28;20514;-49
2021/09/13 06:58:12;;;;;;;12.70;10.65;;;;;;;;;;4992985;28;20038;-46
2021/09/13 07:00:38;;;;;;;14.38;12.18;;;;;;;;;;4992684;28;20073;-46
2021/09/13 07:03:06;;;;;;;16.20;10.68;;;;;;;;;;4992615;28;20539;-46
2021/09/13 07:05:33;;;;;;;14.90;11.70;;;;;;;;;;4979131;28;20122;-46
2021/09/13 07:08:00;;;;;;;17.30;11.93;;;;;;;;;;4973971;28;20110;-49
2021/09/13 07:10:28;;;;;;;14.38;12.35;;;;;;;;;;4973813;28;20114;-44
2021/09/13 07:12:55;;;;;;;15.73;12.32;;;;;;;;;;4973912;28;20058;-51
2021/09/13 07:15:23;;;;;;;16.38;12.25;;;;;;;;;;4983541;28;20050;-47
2021/09/13 07:17:50;;;;;;;14.10;11.45;;;;;;;;;;4992932;28;20043;-46
2021/09/13 07:20:17;;;;;;;14.30;11.70;;;;;;;;;;4993008;28;20105;-48
2021/09/13 07:22:44;;;;;;;16.90;12.93;;;;;;;;;;4991151;28;20043;-47
2021/09/13 07:25:11;;;;;;;18.00;12.52;;;;;;;;;;4980243;28;20043;-45
2021/09/13 07:27:40;;;;;;;16.58;14.30;;;;;;;;;;4984069;28;20057;-49
2021/09/13 07:30:07;;;;;;;16.35;13.35;;;;;;;;;;4991778;28;20070;-48
2021/09/13 07:32:34;;;;;;;16.77;13.38;;;;;;;;;;4991185;28;20038;-50
2021/09/13 07:35:01;;;;;;;16.92;11.75;;;;;;;;;;4989515;28;20098;-48
2021/09/13 07:37:28;;;;;;;14.48;11.30;;;;;;;;;;4991970;28;20117;-47
2021/09/13 07:39:54;;;;;;;18.20;11.38;;;;;;;;;;4992006;28;20433;-46
2021/09/13 07:42:23;;;;;;;15.98;10.25;;;;;;;;;;4981454;28;20134;-42
2021/09/13 07:44:50;;;;;;;15.80;10.48;;;;;;;;;;4991076;28;20042;-44
2021/09/13 07:47:19;;;;;;;17.48;10.05;;;;;;;;;;4993761;28;20057;-44
2021/09/13 07:49:46;;;;;;;13.85;9.60;;;;;;;;;;5008634;28;20045;-44
2021/09/13 07:52:12;;;;;;;13.38;10.05;;;;;;;;;;4992614;28;20119;-47
2021/09/13 07:54:39;;;;;;;13.70;10.02;;;;;;;;;;4999115;28;20046;-47
2021/09/13 07:57:06;;;;;;;14.52;8.98;;;;;;;;;;4992094;28;20100;-44
2021/09/13 07:59:33;;;;;;;13.55;9.70;;;;;;;;;;4989446;28;20097;-47
2021/09/13 08:01:59;;;;;;;11.90;9.23;;;;;;;;;;5005193;28;20038;-50
2021/09/13 08:04:27;;;;;;;13.77;8.20;;;;;;;;;;4985718;28;20385;-47
2021/09/13 08:06:53;;;;;;;10.63;8.15;;;;;;;;;;4990377;28;20062;-46
2021/09/13 08:09:20;;;;;;;10.65;7.68;;;;;;;;;;4992283;28;20452;-44
2021/09/13 08:11:47;;;;;;;11.63;7.30;;;;;;;;;;4990523;28;20532;-49
2021/09/13 08:14:15;;;;;;;7.38;6.43;;;;;;;;;;4990586;28;20118;-44
2021/09/13 08:16:45;;;;;;;10.35;7.38;;;;;;;;;;4991069;28;20042;-46
2021/09/13 08:19:12;;;;;;;10.55;7.05;;;;;;;;;;4991630;28;20380;-50
2021/09/13 08:21:44;;;;;;;7.30;5.65;;;;;;;;;;4988429;28;20133;-45
2021/09/13 08:24:13;;;;;;;7.32;5.70;;;;;;;;;;4978496;28;20495;-41
2021/09/13 08:26:40;;;;;;;7.97;5.47;;;;;;;;;;4993658;28;20058;-41
2021/09/13 08:29:13;;;;;;;7.15;5.72;;;;;;;;;;4993687;28;20133;-44
2021/09/13 08:31:40;;;;;;;;;;;;;;;;;;4993399;28;20130;-45
2021/09/13 08:34:07;;;;;;;7.82;5.40;;;;;;;;;;4989749;28;20372;-42
2021/09/13 08:36:34;;;;;;;9.73;5.82;;;;;;;;;;4995313;28;20117;-44
2021/09/13 08:39:00;;;;;;;8.68;5.43;;;;;;;;;;4995558;28;20054;-41
2021/09/13 08:41:27;;;;;;;7.45;5.53;;;;;;;;;;4999579;28;20129;-40
2021/09/13 08:43:55;;;;;;;9.45;5.95;;;;;;;;;;4996103;28;20084;-46
2021/09/13 08:46:26;;;;;;;7.97;5.80;;;;;;;;;;4995129;28;20422;-42
2021/09/13 08:49:00;;;;;;;8.20;5.60;;;;;;;;;;4994622;28;20380;-40
2021/09/13 08:51:30;;;;;;;9.13;5.88;;;;;;;;;;4991106;28;20391;-41
2021/09/13 08:54:00;;;;;;;7.07;5.63;;;;;;;;;;4995452;28;20050;-41
2021/09/13 08:56:33;;;;;;;6.70;5.05;;;;;;;;;;4995480;28;20042;-41
2021/09/13 08:59:00;;;;;;;;;;;;;;;;;;4981796;28;20677;-42
2021/09/13 09:01:27;;;;;;;7.93;5.72;;;;;;;;;;5007726;28;19928;-43
2021/09/13 09:03:56;;;;;;;7.18;5.70;;;;;;;;;;5005898;28;20128;-41
2021/09/13 09:06:29;;;;;;;7.45;5.53;;;;;;;;;;5012489;28;20066;-41
2021/09/13 09:08:57;;;;;;;7.38;5.13;;;;;;;;;;4993732;28;20050;-43
2021/09/13 09:11:24;;;;;;;8.30;5.57;;;;;;;;;;5000432;28;20042;-41
2021/09/13 09:13:51;;;;;;;7.13;5.25;;;;;;;;;;4993627;28;20038;-41
2021/09/13 09:16:17;;;;;;;7.18;5.03;;;;;;;;;;4993228;28;20402;-43
2021/09/13 09:18:45;;;;;;;7.10;5.05;;;;;;;;;;4993776;28;21261;-40
2021/09/13 09:21:35;;;;;;;6.78;5.55;;;;;;;;;;5001673;28;20052;-42
2021/09/13 09:24:03;;;;;;;5.63;4.55;;;;;;;;;;5003400;28;20048;-41
2021/09/13 09:26:30;;;;;;;6.50;4.63;;;;;;;;;;4996998;28;20133;-46
2021/09/13 09:28:58;;;;;;;5.90;4.75;;;;;;;;;;4994474;28;20528;-40
2021/09/13 09:31:35;;;;;;;5.93;4.68;;;;;;;;;;4994829;28;20144;-40
2021/09/13 09:34:12;;;;;;;7.50;4.78;;;;;;;;;;4998133;28;20514;-41
2021/09/13 09:36:38;;;;;;;5.13;4.50;;;;;;;;;;5000867;28;20117;-40
2021/09/13 09:39:12;;;;;;;8.10;4.82;;;;;;;;;;4994225;28;20046;-41
2021/09/13 09:41:43;;;;;;;6.20;5.13;;;;;;;;;;5000462;28;20042;-39
2021/09/13 09:44:10;;;;;;;5.80;4.80;;;;;;;;;;5007179;28;20133;-41
2021/09/13 09:46:41;;;;;;;6.57;4.68;;;;;;;;;;4993845;28;20093;-39
2021/09/13 09:49:09;;;;;;;5.72;4.63;;;;;;;;;;4994558;28;20066;-40
2021/09/13 09:51:40;;;;;;;5.88;4.50;;;;;;;;;;4994618;28;20130;-40
2021/09/13 09:54:14;;;;;;;7.85;4.63;;;;;;;;;;4993198;28;20038;-45
2021/09/13 09:56:42;;;;;;;5.80;4.20;;;;;;;;;;4991455;28;20061;-43
2021/09/13 09:59:10;;;;;;;5.30;4.63;;;;;;;;;;4993526;28;20654;-41
2021/09/13 10:01:36;;;;;;;6.47;4.82;;;;;;;;;;4992754;28;20042;-41
2021/09/13 10:04:23;;;;;;;7.55;5.15;;;;;;;;;;4986595;28;20484;-44
2021/09/13 10:07:00;;;;;;;6.57;4.95;;;;;;;;;;4990690;28;20090;-42
2021/09/13 10:09:29;;;;;;;8.82;5.00;;;;;;;;;;4984171;28;20113;-43
2021/09/13 10:12:00;;;;;;;6.90;5.40;;;;;;;;;;4993368;28;20050;-41
2021/09/13 10:14:28;;;;;;;7.75;5.25;;;;;;;;;;4992421;28;20108;-41
2021/09/13 10:16:56;;;;;;;8.88;6.13;;;;;;;;;;4992896;28;20045;-40
2021/09/13 10:19:44;;;;;;;8.73;4.90;;;;;;;;;;4994563;28;20062;-44
2021/09/13 10:22:11;;;;;;;6.75;5.07;;;;;;;;;;4993433;28;20041;-41
2021/09/13 10:24:39;;;;;;;8.32;5.45;;;;;;;;;;4991193;28;20185;-45
2021/09/13 10:27:07;;;;;;;7.75;5.93;;;;;;;;;;4986531;28;20068;-42
2021/09/13 10:29:34;;;;;;;7.40;6.25;;;;;;;;;;4994121;28;20141;-40
2021/09/13 10:32:02;;;;;;;7.55;5.95;;;;;;;;;;4996196;28;20157;-43
2021/09/13 10:34:31;;;;;;;6.97;5.55;;;;;;;;;;4996830;28;20050;-42
2021/09/13 10:37:03;;;;;;;7.82;5.18;;;;;;;;;;4996779;28;20038;-42
2021/09/13 10:39:53;;;;;;;10.35;5.97;;;;;;;;;;4995027;28;20059;-43
2021/09/13 10:42:29;;;;;;;7.25;5.70;;;;;;;;;;4994758;28;20059;-42
2021/09/13 10:45:05;;;;;;;9.10;6.32;;;;;;;;;;4992580;28;20081;-41
2021/09/13 10:47:32;;;;;;;9.57;6.05;;;;;;;;;;4992182;28;20081;-41
2021/09/13 10:50:17;;;;;;;8.43;6.55;;;;;;;;;;4990520;28;20117;-41
2021/09/13 10:52:45;;;;;;;8.02;5.22;;;;;;;;;;4993349;28;20125;-42
2021/09/13 10:55:12;;;;;;;7.00;6.07;;;;;;;;;;5011989;28;20066;-43
2021/09/13 10:57:51;;;;;;;6.38;5.32;;;;;;;;;;4983592;28;20038;-41
2021/09/13 11:00:37;;;;;;;8.20;5.80;;;;;;;;;;4991169;28;20042;-42
2021/09/13 11:03:32;;;;;;;6.63;5.25;;;;;;;;;;4991381;28;20058;-44
2021/09/13 11:06:13;;;;;;;8.45;5.93;;;;;;;;;;4984273;28;20146;-48
2021/09/13 11:08:47;;;;;;;7.55;4.65;;;;;;;;;;4993379;28;20050;-43
2021/09/13 11:11:17;;;;;;;7.10;5.25;;;;;;;;;;4991466;28;20146;-47
2021/09/13 11:13:45;;;;;;;7.10;5.03;;;;;;;;;;4973523;28;20059;-46
2021/09/13 11:16:15;;;;;;;9.27;5.00;;;;;;;;;;5010094;22;20463;-47
2021/09/13 11:18:43;;;;;;;5.57;4.85;;;;;;;;;;4991609;28;20047;-48
2021/09/13 11:21:27;;;;;;;7.05;4.70;;;;;;;;;;4988256;28;20066;-47
2021/09/13 11:23:59;;;;;;;5.93;4.53;;;;;;;;;;4972624;28;20080;-47
2021/09/13 11:26:31;;;;;;;7.63;4.88;;;;;;;;;;4973333;28;20042;-50
2021/09/13 11:29:12;;;;;;;6.40;4.65;;;;;;;;;;4973457;28;20053;-47
2021/09/13 11:31:54;;;;;;;6.38;4.53;;;;;;;;;;4973241;28;20467;-46
2021/09/13 11:34:24;;;;;;;5.97;4.30;;;;;;;;;;4978284;28;20049;-48
2021/09/13 11:36:59;;;;;;;8.05;3.55;;;;;;;;;;4990691;28;20073;-47
2021/09/13 11:39:28;;;;;;;5.60;3.65;;;;;;;;;;4992665;28;20085;-49
2021/09/13 11:41:57;;;;;;;4.90;3.72;;;;;;;;;;4993063;28;20042;-47
2021/09/13 11:44:26;;;;;;;5.88;4.18;;;;;;;;;;4983419;28;20035;-49
2021/09/13 11:46:59;;;;;;;5.53;4.40;;;;;;;;;;4980709;28;20046;-51
2021/09/13 11:49:29;;;;;;;6.15;4.03;;;;;;;;;;4991493;28;20096;-52
2021/09/13 11:51:59;;;;;;;7.20;4.60;;;;;;;;;;4986595;28;20502;-49
2021/09/13 11:54:26;;;;;;;5.20;3.55;;;;;;;;;;4984666;28;20042;-50
2021/09/13 11:56:54;;;;;;;4.78;3.88;;;;;;;;;;4993472;28;20047;-49
2021/09/13 11:59:29;;;;;;;6.47;4.07;;;;;;;;;;4991975;28;20551;-50
2021/09/13 12:02:00;;;;;;;4.85;3.80;;;;;;;;;;4991102;28;20133;-50
2021/09/13 12:04:28;;;;;;;5.72;4.38;;;;;;;;;;4987501;28;20074;-52
2021/09/13 12:07:09;;;;;;;4.75;3.75;;;;;;;;;;4990724;28;20348;-51
2021/09/13 12:09:37;;;;;;;5.55;4.25;;;;;;;;;;4991153;28;20479;-49
2021/09/13 12:12:04;;;;;;;5.93;4.03;;;;;;;;;;4989581;28;20062;-52
2021/09/13 12:14:32;;;;;;;4.53;3.47;;;;;;;;;;4983311;28;20046;-52
2021/09/13 12:17:08;;;;;;;4.85;3.67;;;;;;;;;;5002372;28;20129;-51
2021/09/13 12:19:37;;;;;;;5.82;3.80;;;;;;;;;;4992227;28;20951;-49
2021/09/13 12:22:05;;;;;;;5.35;3.97;;;;;;;;;;4987923;28;20054;-49
2021/09/13 12:24:39;;;;;;;5.40;3.92;;;;;;;;;;4989790;28;20050;-51
2021/09/13 12:27:13;;;;;;;6.32;3.30;;;;;;;;;;4989107;28;20042;-49
2021/09/13 12:29:54;;;;;;;5.28;3.65;;;;;;;;;;4985711;28;20057;-48
2021/09/13 12:32:22;;;;;;;5.78;4.15;;;;;;;;;;4987073;28;20046;-50
2021/09/13 12:34:52;;;;;;;6.60;4.07;;;;;;;;;;4988976;28;20046;-47
2021/09/13 12:37:24;;;;;;;6.50;4.10;;;;;;;;;;4987272;28;20104;-49
2021/09/13 12:40:15;;;;;;;6.63;3.70;;;;;;;;;;4982875;28;20035;-50
2021/09/13 12:42:52;;;;;;;13.60;7.82;;;;;;;;;;4978013;28;20050;-47
2021/09/13 12:45:20;;;;;;;5.60;4.32;;;;;;;;;;4998025;28;20042;-49
2021/09/13 12:47:50;;;;;;;4.68;3.88;;;;;;;;;;4990452;28;20496;-53
2021/09/13 12:50:27;;;;;;;5.22;4.30;;;;;;;;;;4976663;28;20121;-51
2021/09/13 12:52:54;;;;;;;6.85;4.63;;;;;;;;;;4982895;28;20518;-50
2021/09/13 12:55:22;;;;;;;4.40;4.00;;;;;;;;;;4989970;28;20039;-52
2021/09/13 12:57:49;;;;;;;6.35;3.85;;;;;;;;;;4990938;28;20070;-50
2021/09/13 13:00:17;;;;;;;4.97;4.05;;;;;;;;;;4986156;28;20049;-49
2021/09/13 13:03:03;;;;;;;6.32;4.38;;;;;;;;;;4983742;28;20111;-50
2021/09/13 13:05:30;;;;;;;5.38;3.95;;;;;;;;;;4988690;28;20133;-47
2021/09/13 13:07:59;;;;;;;5.28;4.07;;;;;;;;;;4993786;28;20069;-49
2021/09/13 13:10:26;;;;;;;5.35;4.28;;;;;;;;;;4998156;28;20291;-49
2021/09/13 13:12:53;;;;;;;5.35;4.03;;;;;;;;;;4989567;28;20042;-50
2021/09/13 13:15:20;;;;;;;6.30;4.07;;;;;;;;;;4992710;28;20121;-53
2021/09/13 13:17:47;;;;;;;5.38;4.35;;;;;;;;;;4992812;28;20506;-53
2021/09/13 13:20:15;;;;;;;5.32;4.15;;;;;;;;;;4991579;28;20134;-51
2021/09/13 13:22:41;;;;;;;4.95;3.95;;;;;;;;;;4990088;28;20142;-49
2021/09/13 13:25:08;;;;;;;4.07;3.63;;;;;;;;;;4994078;28;20073;-53
2021/09/13 13:27:36;;;;;;;4.47;3.80;;;;;;;;;;4992112;28;20062;-50
2021/09/13 13:30:04;;;;;;;5.82;4.15;;;;;;;;;;4996239;28;20050;-50
2021/09/13 13:32:31;;;;;;;5.68;4.00;;;;;;;;;;4992970;28;20034;-50
2021/09/13 13:34:58;;;;;;;4.95;4.15;;;;;;;;;;4986627;28;20182;-50
2021/09/13 13:37:25;;;;;;;4.47;3.95;;;;;;;;;;4994043;28;20411;-54
2021/09/13 13:39:51;;;;;;;5.30;3.97;;;;;;;;;;4997059;28;20220;-49
2021/09/13 13:42:18;;;;;;;4.65;3.50;;;;;;;;;;4988415;28;20058;-49
2021/09/13 13:44:45;;;;;;;5.07;4.07;;;;;;;;;;4990832;28;20050;-52
2021/09/13 13:47:12;;;;;;;82.60;50.53;;;;;;;;;;4990326;28;20097;-54
2021/09/13 13:49:39;;;;;;;5.28;3.95;;;;;;;;;;4991853;28;20112;-44
2021/09/13 13:52:06;;;;;;;4.97;4.15;;;;;;;;;;4990466;28;20494;-46
2021/09/13 13:54:33;;;;;;;5.35;4.28;;;;;;;;;;4991277;28;20412;-46
2021/09/13 13:57:00;;;;;;;4.10;3.67;;;;;;;;;;4994383;28;20480;-43
2021/09/13 13:59:27;;;;;;;4.53;3.83;;;;;;;;;;4994384;28;20050;-43
2021/09/13 14:01:54;;;;;;;6.90;4.32;;;;;;;;;;4979225;28;20047;-46
2021/09/13 14:04:21;;;;;;;9.40;4.35;;;;;;;;;;4974664;28;20047;-44
2021/09/13 14:06:48;;;;;;;7.63;4.72;;;;;;;;;;4974782;28;20105;-43
2021/09/13 14:09:15;;;;;;;6.50;3.92;;;;;;;;;;4974850;28;20050;-48
2021/09/13 14:11:42;;;;;;;4.30;3.90;;;;;;;;;;4974845;28;20412;-45
2021/09/13 14:14:09;;;;;;;4.75;4.10;;;;;;;;;;4974423;28;20067;-43
2021/09/13 14:16:35;;;;;;;6.32;3.65;;;;;;;;;;4974568;28;20039;-50
2021/09/13 14:19:02;;;;;;;4.43;3.80;;;;;;;;;;4974734;28;20124;-45
2021/09/13 14:21:29;;;;;;;6.43;3.78;;;;;;;;;;4975067;28;20101;-44
2021/09/13 14:23:56;;;;;;;7.35;4.40;;;;;;;;;;4974324;28;20043;-49
2021/09/13 14:26:26;;;;;;;4.32;3.42;;;;;;;;;;4974451;28;20053;-47
2021/09/13 14:28:53;;;;;;;4.20;3.65;;;;;;;;;;4974246;28;20528;-54
2021/09/13 14:31:20;;;;;;;5.13;4.03;;;;;;;;;;5004000;28;20056;-48
2021/09/13 14:33:48;;;;;;;7.25;4.47;;;;;;;;;;5008309;28;20042;-49
2021/09/13 14:36:15;;;;;;;5.78;3.97;;;;;;;;;;4976901;28;20043;-53
2021/09/13 14:38:42;;;;;;;5.40;3.65;;;;;;;;;;4974405;28;20035;-49
2021/09/13 14:41:09;;;;;;;4.82;3.70;;;;;;;;;;4977619;28;20139;-49
2021/09/13 14:43:35;;;;;;;4.80;3.90;;;;;;;;;;4984359;28;20081;-50
2021/09/13 14:46:04;;;;;;;5.88;4.50;;;;;;;;;;4976420;28;20137;-50
2021/09/13 14:48:31;;;;;;;4.45;3.88;;;;;;;;;;4993762;28;20058;-49
2021/09/13 14:50:58;;;;;;;4.20;3.72;;;;;;;;;;4993371;28;20046;-51